createdAt,value
2019-04-22T00:00:30.758Z,97349.09
2019-04-22T00:03:01.536Z,97350.12
2019-04-22T00:05:51.144Z,97349.28
2019-04-22T00:08:19.719Z,97345.52
2019-04-22T00:10:56.098Z,97339.64
2019-04-22T00:13:26.361Z,97345.00
2019-04-22T00:15:47.580Z,97345.59
2019-04-22T00:18:19.902Z,97344.42
2019-04-22T00:20:54.562Z,97333.84
2019-04-22T00:23:24.076Z,97334.03
2019-04-22T00:25:57.289Z,97336.16
2019-04-22T00:28:24.972Z,97331.20
2019-04-22T00:30:54.794Z,97320.28
2019-04-22T00:33:20.416Z,97325.33
2019-04-22T00:35:55.170Z,97322.92
2019-04-22T00:40:52.579Z,97321.69
2019-04-22T00:43:24.655Z,97318.22
2019-04-22T00:45:57.839Z,97310.63
2019-04-22T00:48:27.790Z,97307.82
2019-04-22T00:51:01.642Z,97308.64
2019-04-22T00:53:29.829Z,97309.77
2019-04-22T00:56:03.054Z,97308.28
2019-04-22T00:58:32.787Z,97302.91
2019-04-22T01:01:09.089Z,97306.12
2019-04-22T01:03:40.641Z,97305.98
2019-04-22T01:06:04.580Z,97300.58
2019-04-22T01:08:43.203Z,97306.65
2019-04-22T01:11:13.568Z,97299.06
2019-04-22T01:13:30.528Z,97300.09
2019-04-22T01:16:09.347Z,97298.62
2019-04-22T01:18:39.446Z,97294.91
2019-04-22T01:21:17.778Z,97298.48
2019-04-22T01:23:34.402Z,97289.02
2019-04-22T01:26:05.309Z,97284.69
2019-04-22T01:28:34.328Z,97284.74
2019-04-22T01:31:01.990Z,97282.67
2019-04-22T01:33:32.443Z,97287.18
2019-04-22T01:36:15.049Z,97281.34
2019-04-22T01:38:51.291Z,97285.04
2019-04-22T01:41:25.313Z,97282.10
2019-04-22T01:44:04.001Z,97284.26
2019-04-22T01:46:29.463Z,97280.39
2019-04-22T01:48:57.181Z,97277.39
2019-04-22T01:51:35.439Z,97276.67
2019-04-22T01:54:00.237Z,97271.97
2019-04-22T01:56:20.510Z,97277.61
2019-04-22T01:58:48.222Z,97269.20
2019-04-22T02:01:25.274Z,97271.53
2019-04-22T02:03:56.155Z,97266.99
2019-04-22T02:06:21.925Z,97261.20
2019-04-22T02:11:29.274Z,97256.87
2019-04-22T02:13:56.369Z,97257.38
2019-04-22T02:16:20.085Z,97249.75
2019-04-22T02:18:53.068Z,97248.56
2019-04-22T02:21:20.219Z,97250.44
2019-04-22T02:26:25.772Z,97244.84
2019-04-22T02:29:06.487Z,97240.63
2019-04-22T02:36:29.505Z,97236.58
2019-04-22T02:39:10.147Z,97231.06
2019-04-22T02:46:53.236Z,97225.55
2019-04-22T02:54:22.180Z,97221.11
2019-04-22T02:56:34.140Z,97214.81
2019-04-22T03:01:44.905Z,97210.82
2019-04-22T03:09:03.440Z,97206.70
2019-04-22T03:11:35.835Z,97202.50
2019-04-22T03:14:01.361Z,97203.08
2019-04-22T03:16:33.230Z,97201.42
2019-04-22T03:21:31.301Z,97199.41
2019-04-22T03:24:20.525Z,97194.81
2019-04-22T03:26:31.927Z,97183.77
2019-04-22T03:29:04.196Z,97185.95
2019-04-22T03:32:17.357Z,97183.42
2019-04-22T03:35:15.458Z,97176.70
2019-04-22T03:37:09.538Z,97174.70
2019-04-22T03:59:31.818Z,97162.71
2019-04-22T04:04:26.064Z,97157.92
2019-04-22T04:09:24.079Z,97160.55
2019-04-22T04:14:26.719Z,97156.78
2019-04-22T04:16:56.119Z,97153.02
2019-04-22T04:19:54.244Z,97156.88
2019-04-22T04:21:48.505Z,97156.02
2019-04-22T04:32:16.484Z,97154.68
2019-04-22T04:34:49.344Z,97163.32
2019-04-22T04:39:28.794Z,97153.94
2019-04-22T04:42:05.368Z,97150.34
2019-04-22T04:44:35.089Z,97156.73
2019-04-22T04:46:58.751Z,97152.31
2019-04-22T04:49:34.910Z,97153.51
2019-04-22T04:52:03.526Z,97152.22
2019-04-22T05:02:06.345Z,97138.43
2019-04-22T05:04:37.246Z,97144.83
2019-04-22T05:12:01.910Z,97143.08
2019-04-22T05:14:48.900Z,97138.53
2019-04-22T05:17:18.424Z,97139.06
2019-04-22T05:19:36.086Z,97135.14
2019-04-22T05:22:14.888Z,97134.66
2019-04-22T05:24:48.522Z,97137.11
2019-04-22T05:30:00.187Z,97129.53
2019-04-22T05:32:13.325Z,97125.86
2019-04-22T05:34:42.203Z,97131.61
2019-04-22T05:37:14.262Z,97129.20
2019-04-22T05:39:43.678Z,97131.11
2019-04-22T05:42:16.393Z,97125.46
2019-04-22T05:44:47.958Z,97129.05
2019-04-22T05:47:14.801Z,97129.52
2019-04-22T05:49:39.334Z,97127.05
2019-04-22T05:52:12.517Z,97128.36
2019-04-22T05:54:38.638Z,97129.38
2019-04-22T05:57:14.387Z,97123.80
2019-04-22T05:59:46.233Z,97120.72
2019-04-22T06:04:44.962Z,97124.35
2019-04-22T06:07:13.781Z,97126.58
2019-04-22T06:09:38.838Z,97122.98
2019-04-22T06:12:14.791Z,97113.06
2019-04-22T06:14:47.993Z,97118.25
2019-04-22T06:17:24.956Z,97112.13
2019-04-22T06:19:50.873Z,97113.86
2019-04-22T06:22:30.351Z,97116.81
2019-04-22T06:24:49.426Z,97111.89
2019-04-22T06:27:21.205Z,97110.03
2019-04-22T06:29:46.154Z,97103.95
2019-04-22T06:32:31.519Z,97109.98
2019-04-22T06:34:48.249Z,97103.98
2019-04-22T06:39:50.986Z,97101.25
2019-04-22T06:42:21.897Z,97101.48
2019-04-22T06:44:51.659Z,97105.83
2019-04-22T06:47:40.107Z,97108.47
2019-04-22T06:49:49.532Z,97095.83
2019-04-22T06:54:54.914Z,97093.31
2019-04-22T06:57:24.242Z,97094.43
2019-04-22T06:59:54.872Z,97092.48
2019-04-22T07:02:30.731Z,97085.50
2019-04-22T07:04:52.008Z,97086.14
2019-04-22T07:07:21.735Z,97086.50
2019-04-22T07:09:54.304Z,97080.23
2019-04-22T07:12:26.043Z,97078.07
2019-04-22T07:14:55.897Z,97083.69
2019-04-22T07:17:23.166Z,97076.77
2019-04-22T07:19:47.548Z,97079.20
2019-04-22T07:22:21.502Z,97080.80
2019-04-22T07:24:55.904Z,97070.52
2019-04-22T07:27:22.238Z,97063.12
2019-04-22T07:29:55.358Z,97064.06
2019-04-22T07:32:39.720Z,97065.37
2019-04-22T07:34:53.616Z,97058.11
2019-04-22T07:37:31.666Z,97046.06
2019-04-22T07:39:51.392Z,97046.06
2019-04-22T07:42:26.223Z,97047.77
2019-04-22T07:44:54.889Z,97047.77
2019-04-22T07:47:34.148Z,97050.23
2019-04-22T07:50:12.804Z,97044.31
2019-04-22T07:52:24.601Z,97045.81
2019-04-22T07:54:52.398Z,97040.31
2019-04-22T07:57:28.403Z,97034.09
2019-04-22T07:59:57.557Z,97040.39
2019-04-22T08:02:23.640Z,97041.31
2019-04-22T08:10:04.548Z,97041.88
2019-04-22T08:12:29.659Z,97031.55
2019-04-22T08:14:53.728Z,97026.88
2019-04-22T08:17:53.399Z,97029.47
2019-04-22T08:19:59.221Z,97027.90
2019-04-22T08:22:21.401Z,97017.94
2019-04-22T08:24:56.127Z,97018.31
2019-04-22T08:27:24.602Z,97014.12
2019-04-22T08:30:07.430Z,97009.78
2019-04-22T08:32:29.904Z,97008.57
2019-04-22T08:34:59.165Z,96999.88
2019-04-22T08:40:01.678Z,96998.16
2019-04-22T08:42:36.605Z,97000.50
2019-04-22T08:47:30.974Z,96990.63
2019-04-22T08:50:04.847Z,96986.88
2019-04-22T08:52:31.871Z,96984.97
2019-04-22T08:55:04.065Z,96983.56
2019-04-22T08:57:34.709Z,96979.00
2019-04-22T09:00:14.481Z,96972.03
2019-04-22T09:02:32.748Z,96977.09
2019-04-22T09:05:00.095Z,96968.47
2019-04-22T09:15:20.614Z,96958.87
2019-04-22T09:17:31.501Z,96953.22
2019-04-22T09:20:00.267Z,96945.03
2019-04-22T09:22:26.360Z,96947.56
2019-04-22T09:24:56.063Z,96943.64
2019-04-22T09:29:58.530Z,96933.08
2019-04-22T09:32:32.941Z,96924.82
2019-04-22T09:37:34.679Z,96925.98
2019-04-22T09:40:04.650Z,96922.53
2019-04-22T09:42:37.136Z,96915.61
2019-04-22T09:45:04.072Z,96913.47
2019-04-22T09:47:33.839Z,96917.66
2019-04-22T09:50:03.740Z,96911.59
2019-04-22T09:52:51.618Z,96901.34
2019-04-22T09:55:08.306Z,96903.97
2019-04-22T09:57:35.761Z,96897.05
2019-04-22T10:00:10.848Z,96890.16
2019-04-22T10:02:42.689Z,96888.84
2019-04-22T10:05:09.125Z,96876.09
2019-04-22T10:07:31.823Z,96886.31
2019-04-22T10:10:09.954Z,96876.98
2019-04-22T10:12:36.607Z,96871.04
2019-04-22T10:15:00.135Z,96869.36
2019-04-22T10:17:31.641Z,96865.67
2019-04-22T10:19:59.659Z,96853.63
2019-04-22T10:22:43.659Z,96850.02
2019-04-22T10:25:05.087Z,96845.76
2019-04-22T10:27:35.095Z,96838.67
2019-04-22T10:30:04.426Z,96832.09
2019-04-22T10:32:33.447Z,96828.66
2019-04-22T10:34:55.543Z,96823.59
2019-04-22T10:37:20.442Z,96820.54
2019-04-22T10:39:56.225Z,96805.46
2019-04-22T10:42:18.950Z,96805.46
2019-04-22T10:44:48.507Z,96810.22
2019-04-22T10:47:18.113Z,96806.13
2019-04-22T10:49:46.731Z,96797.64
2019-04-22T10:52:16.391Z,96795.09
2019-04-22T10:54:45.477Z,96787.73
2019-04-22T10:57:14.125Z,96777.69
2019-04-22T10:59:42.701Z,96777.69
2019-04-22T11:02:11.699Z,96778.86
2019-04-22T11:04:40.560Z,96761.34
2019-04-22T11:07:10.993Z,96773.94
2019-04-22T11:09:50.752Z,96777.03
2019-04-22T11:12:15.454Z,96775.22
2019-04-22T11:14:41.865Z,96775.22
2019-04-22T11:17:09.489Z,96769.61
2019-04-22T11:19:39.345Z,96758.45
2019-04-22T11:22:18.101Z,96768.16
2019-04-22T11:24:38.903Z,96761.62
2019-04-22T11:27:08.345Z,96754.00
2019-04-22T11:29:37.475Z,96752.68
2019-04-22T11:32:06.317Z,96752.68
2019-04-22T11:34:35.422Z,96750.53
2019-04-22T11:37:05.165Z,96745.66
2019-04-22T11:39:36.488Z,96737.99
2019-04-22T11:42:04.501Z,96741.88
2019-04-22T11:44:33.045Z,96732.08
2019-04-22T11:47:01.674Z,96732.08
2019-04-22T11:49:30.145Z,96733.87
2019-04-22T11:51:58.990Z,96720.69
2019-04-22T11:54:28.563Z,96720.69
2019-04-22T11:56:57.041Z,96721.83
2019-04-22T11:59:26.723Z,96723.41
2019-04-22T12:01:55.361Z,96715.11
2019-04-22T12:04:23.816Z,96719.20
2019-04-22T12:06:53.811Z,96712.03
2019-04-22T12:09:23.658Z,96716.57
2019-04-22T12:11:53.796Z,96711.40
2019-04-22T12:14:22.394Z,96700.17
2019-04-22T12:16:50.788Z,96695.23
2019-04-22T12:19:19.146Z,96683.41
2019-04-22T12:21:49.068Z,96688.38
2019-04-22T12:24:17.483Z,96687.48
2019-04-22T12:26:46.407Z,96676.63
2019-04-22T12:29:15.414Z,96678.17
2019-04-22T12:31:45.162Z,96680.36
2019-04-22T12:34:13.587Z,96671.14
2019-04-22T12:36:42.732Z,96669.86
2019-04-22T12:39:11.621Z,96676.80
2019-04-22T12:41:40.191Z,96657.98
2019-04-22T12:44:09.349Z,96654.56
2019-04-22T12:46:38.411Z,96645.92
2019-04-22T12:49:08.014Z,96645.36
2019-04-22T12:51:36.775Z,96641.34
2019-04-22T12:54:06.738Z,96644.61
2019-04-22T12:56:35.488Z,96637.36
2019-04-22T12:59:05.570Z,96629.11
2019-04-22T13:01:35.071Z,96628.99
2019-04-22T13:04:07.833Z,96618.75
2019-04-22T13:06:33.740Z,96627.24
2019-04-22T13:09:02.271Z,96624.05
2019-04-22T13:11:34.159Z,96611.44
2019-04-22T13:14:00.993Z,96609.42
2019-04-22T13:16:29.444Z,96603.73
2019-04-22T13:19:01.956Z,96600.48
2019-04-22T13:21:28.929Z,96599.83
2019-04-22T13:23:57.277Z,96592.14
2019-04-22T13:26:27.181Z,96589.89
2019-04-22T13:28:56.933Z,96583.58
2019-04-22T13:31:26.837Z,96578.11
2019-04-22T13:33:58.057Z,96573.34
2019-04-22T13:36:27.660Z,96566.81
2019-04-22T13:38:55.503Z,96572.53
2019-04-22T13:41:31.696Z,96568.34
2019-04-22T13:43:54.015Z,96565.80
2019-04-22T13:46:22.425Z,96562.75
2019-04-22T13:49:14.654Z,96561.25
2019-04-22T13:56:45.101Z,96543.31
2019-04-22T13:59:03.107Z,96541.17
2019-04-22T14:01:23.008Z,96542.36
2019-04-22T14:04:02.660Z,96536.80
2019-04-22T14:06:31.219Z,96538.07
2019-04-22T14:09:01.027Z,96533.77
2019-04-22T14:11:37.645Z,96524.19
2019-04-22T14:14:00.833Z,96527.52
2019-04-22T14:16:31.016Z,96525.12
2019-04-22T14:19:00.227Z,96526.19
2019-04-22T14:21:28.670Z,96512.64
2019-04-22T14:23:58.413Z,96511.28
2019-04-22T14:26:28.470Z,96506.13
2019-04-22T14:28:57.589Z,96507.59
2019-04-22T14:31:26.715Z,96510.80
2019-04-22T14:33:59.365Z,96506.68
2019-04-22T14:36:25.449Z,96493.66
2019-04-22T14:38:54.421Z,96488.84
2019-04-22T14:41:42.577Z,96485.14
2019-04-22T14:45:05.412Z,96485.80
2019-04-22T14:46:51.157Z,96488.33
2019-04-22T14:49:16.637Z,96478.24
2019-04-22T14:51:44.148Z,96478.55
2019-04-22T14:54:10.110Z,96475.62
2019-04-22T14:56:24.357Z,96471.66
2019-04-22T14:58:53.120Z,96473.28
2019-04-22T15:01:21.712Z,96461.53
2019-04-22T15:03:50.436Z,96467.01
2019-04-22T15:06:20.141Z,96464.05
2019-04-22T15:08:48.992Z,96459.55
2019-04-22T15:11:17.402Z,96458.38
2019-04-22T15:13:47.360Z,96454.75
2019-04-22T15:16:33.903Z,96459.39
2019-04-22T15:19:04.213Z,96457.02
2019-04-22T15:21:32.708Z,96458.53
2019-04-22T15:24:02.742Z,96454.06
2019-04-22T15:26:32.622Z,96460.95
2019-04-22T15:29:01.092Z,96456.80
2019-04-22T15:31:29.525Z,96453.00
2019-04-22T15:33:58.416Z,96440.55
2019-04-22T15:36:27.977Z,96442.53
2019-04-22T15:38:57.595Z,96448.45
2019-04-22T15:41:26.109Z,96436.39
2019-04-22T15:43:54.486Z,96433.41
2019-04-22T15:46:23.507Z,96432.22
2019-04-22T15:48:52.029Z,96431.38
2019-04-22T15:51:20.733Z,96428.28
2019-04-22T15:53:49.541Z,96430.62
2019-04-22T15:56:18.809Z,96428.34
2019-04-22T15:58:47.984Z,96422.77
2019-04-22T16:01:25.620Z,96428.50
2019-04-22T16:03:47.077Z,96422.77
2019-04-22T16:06:15.786Z,96422.05
2019-04-22T16:08:45.696Z,96419.37
2019-04-22T16:11:14.232Z,96417.39
2019-04-22T16:13:42.634Z,96419.81
2019-04-22T16:16:12.389Z,96413.90
2019-04-22T16:18:42.153Z,96417.13
2019-04-22T16:21:11.310Z,96412.81
2019-04-22T16:23:44.726Z,96416.77
2019-04-22T16:26:15.254Z,96413.46
2019-04-22T16:28:45.181Z,96408.59
2019-04-22T16:31:13.673Z,96407.41
2019-04-22T16:33:45.406Z,96402.09
2019-04-22T16:36:13.095Z,96400.75
2019-04-22T16:38:42.793Z,96398.06
2019-04-22T16:41:12.694Z,96405.61
2019-04-22T16:43:42.865Z,96388.14
2019-04-22T16:46:11.724Z,96396.32
2019-04-22T16:48:40.166Z,96392.67
2019-04-22T16:51:09.901Z,96391.33
2019-04-22T16:53:38.985Z,96384.84
2019-04-22T16:56:08.712Z,96389.72
2019-04-22T16:58:37.241Z,96392.12
2019-04-22T17:01:07.605Z,96390.75
2019-04-22T17:03:38.698Z,96395.91
2019-04-22T17:06:19.320Z,96394.56
2019-04-22T17:08:48.684Z,96397.13
2019-04-22T17:11:17.911Z,96393.09
2019-04-22T17:13:47.998Z,96388.41
2019-04-22T17:16:18.000Z,96385.59
2019-04-22T17:18:47.202Z,96385.59
2019-04-22T17:21:15.699Z,96394.14
2019-04-22T17:23:45.568Z,96395.00
2019-04-22T17:26:14.768Z,96401.74
2019-04-22T17:28:43.817Z,96400.24
2019-04-22T17:31:12.968Z,96396.55
2019-04-22T17:33:41.481Z,96397.35
2019-04-22T17:36:10.197Z,96400.18
2019-04-22T17:38:48.702Z,96402.33
2019-04-22T17:41:22.095Z,96390.34
2019-04-22T17:44:09.800Z,96397.64
2019-04-22T17:46:40.214Z,96403.93
2019-04-22T17:49:21.893Z,96408.69
2019-04-22T17:52:13.887Z,96409.40
2019-04-22T17:54:38.478Z,96412.34
2019-04-22T17:57:08.146Z,96404.33
2019-04-22T17:59:38.173Z,96416.80
2019-04-22T18:02:03.068Z,96408.16
2019-04-22T18:04:18.056Z,96412.86
2019-04-22T18:07:15.082Z,96410.91
2019-04-22T18:09:57.925Z,96417.04
2019-04-22T18:12:16.307Z,96415.44
2019-04-22T18:17:11.430Z,96412.92
2019-04-22T18:19:36.431Z,96422.52
2019-04-22T18:22:01.142Z,96416.72
2019-04-22T18:24:26.416Z,96421.78
2019-04-22T18:27:14.590Z,96422.66
2019-04-22T18:29:41.795Z,96422.46
2019-04-22T18:31:58.207Z,96428.24
2019-04-22T18:34:30.873Z,96431.14
2019-04-22T18:37:03.963Z,96428.91
2019-04-22T18:39:40.493Z,96434.98
2019-04-22T18:42:07.607Z,96431.81
2019-04-22T18:44:44.042Z,96435.30
2019-04-22T18:47:08.074Z,96437.36
2019-04-22T18:49:37.387Z,96436.19
2019-04-22T18:52:28.170Z,96444.09
2019-04-22T18:55:04.238Z,96441.97
2019-04-22T18:57:27.373Z,96435.59
2019-04-22T18:59:47.302Z,96439.77
2019-04-22T19:02:16.304Z,96445.03
2019-04-22T19:04:53.910Z,96447.07
2019-04-22T19:07:44.265Z,96456.46
2019-04-22T19:10:10.485Z,96453.14
2019-04-22T19:12:41.566Z,96456.13
2019-04-22T19:15:09.318Z,96456.81
2019-04-22T19:20:08.264Z,96454.12
2019-04-22T19:22:50.416Z,96459.22
2019-04-22T19:25:04.137Z,96458.28
2019-04-22T19:27:37.747Z,96455.05
2019-04-22T19:30:12.230Z,96464.22
2019-04-22T19:32:41.920Z,96457.55
2019-04-22T19:35:04.899Z,96466.92
2019-04-22T19:37:35.885Z,96452.33
2019-04-22T19:40:25.751Z,96454.23
2019-04-22T19:42:49.505Z,96449.13
2019-04-22T19:45:08.824Z,96457.78
2019-04-22T19:47:56.570Z,96464.91
2019-04-22T19:50:12.868Z,96460.15
2019-04-22T19:52:39.960Z,96458.48
2019-04-22T19:55:12.730Z,96455.02
2019-04-22T19:57:34.511Z,96451.23
2019-04-22T20:00:10.885Z,96457.02
2019-04-22T20:02:44.897Z,96461.64
2019-04-22T20:05:22.043Z,96455.95
2019-04-22T20:07:41.398Z,96448.09
2019-04-22T20:10:20.785Z,96456.86
2019-04-22T20:12:46.754Z,96459.58
2019-04-22T20:15:13.889Z,96459.07
2019-04-22T20:18:11.849Z,96450.02
2019-04-22T20:20:23.240Z,96456.43
2019-04-22T20:22:47.094Z,96456.87
2019-04-22T20:25:08.602Z,96448.20
2019-04-22T20:27:47.343Z,96434.78
2019-04-22T20:30:23.174Z,96444.95
2019-04-22T20:32:47.389Z,96438.88
2019-04-22T20:35:21.004Z,96432.25
2019-04-22T20:37:54.789Z,96438.13
2019-04-22T20:40:21.874Z,96432.32
2019-04-22T20:42:54.414Z,96433.61
2019-04-22T20:45:29.105Z,96432.76
2019-04-22T20:47:42.832Z,96433.35
2019-04-22T20:50:23.804Z,96427.88
2019-04-22T20:52:59.664Z,96437.20
2019-04-22T20:55:16.165Z,96434.38
2019-04-22T20:57:56.107Z,96427.33
2019-04-22T21:00:16.897Z,96428.13
2019-04-22T21:02:40.222Z,96433.50
2019-04-22T21:05:14.311Z,96422.84
2019-04-22T21:07:53.940Z,96421.70
2019-04-22T21:10:15.618Z,96417.02
2019-04-22T21:12:41.824Z,96426.92
2019-04-22T21:15:29.651Z,96423.09
2019-04-22T21:17:53.579Z,96419.09
2019-04-22T21:20:26.259Z,96414.66
2019-04-22T21:22:48.278Z,96411.16
2019-04-22T21:25:15.620Z,96413.25
2019-04-22T21:27:54.392Z,96405.21
2019-04-22T21:30:23.109Z,96403.64
2019-04-22T21:32:49.424Z,96405.17
2019-04-22T21:35:35.240Z,96400.21
2019-04-22T21:38:00.417Z,96394.66
2019-04-22T21:40:24.041Z,96390.42
2019-04-22T21:42:59.578Z,96381.63
2019-04-22T21:45:20.798Z,96377.45
2019-04-22T21:48:05.236Z,96379.05
2019-04-22T21:53:00.847Z,96371.46
2019-04-22T21:55:29.773Z,96368.34
2019-04-22T21:58:05.090Z,96361.84
2019-04-22T22:03:11.351Z,96360.27
2019-04-22T22:05:28.654Z,96358.73
2019-04-22T22:07:52.129Z,96358.83
2019-04-22T22:10:33.917Z,96360.33
2019-04-22T22:13:06.690Z,96362.52
2019-04-22T22:15:37.641Z,96357.90
2019-04-22T22:18:02.033Z,96352.53
2019-04-22T22:20:30.964Z,96338.34
2019-04-22T22:23:08.003Z,96339.19
2019-04-22T22:25:33.649Z,96335.02
2019-04-22T22:28:17.050Z,96331.12
2019-04-22T22:30:55.156Z,96325.65
2019-04-22T22:33:06.891Z,96321.03
2019-04-22T22:35:36.182Z,96318.29
2019-04-22T22:38:05.470Z,96311.14
2019-04-22T22:40:23.227Z,96303.83
2019-04-22T22:42:49.932Z,96303.83
2019-04-22T22:45:28.039Z,96303.92
2019-04-22T22:48:15.006Z,96298.11
2019-04-22T22:50:40.332Z,96294.56
2019-04-22T22:53:16.980Z,96285.57
2019-04-22T22:55:41.033Z,96282.73
2019-04-22T22:58:14.259Z,96276.23
2019-04-22T23:00:35.125Z,96284.03
2019-04-22T23:03:38.419Z,96276.58
2019-04-22T23:05:45.330Z,96276.78
2019-04-22T23:08:17.024Z,96274.42
2019-04-22T23:10:52.207Z,96276.27
2019-04-22T23:13:19.004Z,96276.27
2019-04-22T23:15:37.143Z,96273.05
2019-04-22T23:17:50.103Z,96271.27
2019-04-22T23:20:28.992Z,96269.62
2019-04-22T23:23:14.067Z,96266.08
2019-04-22T23:25:44.797Z,96263.68
2019-04-22T23:28:16.076Z,96262.03
2019-04-22T23:30:52.894Z,96257.77
2019-04-22T23:33:42.773Z,96256.77
2019-04-22T23:36:10.745Z,96256.05
2019-04-22T23:38:51.898Z,96247.26
2019-04-22T23:46:37.949Z,96239.87
2019-04-22T23:49:10.221Z,96238.20
2019-04-22T23:51:41.881Z,96232.28
2019-04-22T23:54:22.256Z,96228.96
2019-04-22T23:56:33.582Z,96217.83
2019-04-22T23:59:13.199Z,96221.84
